| time (UTC) | temp C | wind direction | speed KPH | gust KPH | rain 1hr cm | rain 24hr cm | rain mn cm | humidity % | barometer mb |
| 20260906194607 | 27 | 98 | 14.5 | 27.4 | 0.00 | 0.00 | 0.00 | 65 | 1019.8 |
| 20260906193108 | 27 | 120 | 14.5 | 29.0 | 0.00 | 0.00 | 0.00 | 68 | 1019.9 |
| 20260906191621 | 26 | 107 | 12.9 | 25.7 | 0.00 | 0.00 | 0.00 | 70 | 1020.2 |
| 20260906190104 | 26 | 88 | 16.1 | 27.4 | 0.00 | 0.00 | 0.00 | 68 | 1020.5 |
| 20260906184603 | 26 | 147 | 16.1 | 30.6 | 0.00 | 0.00 | 0.00 | 70 | 1020.7 |
| 20260906183104 | 26 | 108 | 17.7 | 32.2 | 0.00 | 0.00 | 0.00 | 69 | 1021.1 |
| 20260906181603 | 25 | 75 | 12.9 | 32.2 | 0.00 | 0.00 | 0.00 | 72 | 1021.5 |
| 20260906180059 | 25 | 23 | 17.7 | 41.8 | 0.00 | 0.00 | 0.00 | 74 | 1022.0 |
| 20260906174613 | 25 | 78 | 17.7 | 38.6 | 0.00 | 0.00 | 0.00 | 74 | 1022.3 |
| 20260906173108 | 25 | 67 | 16.1 | 41.8 | 0.00 | 0.00 | 0.00 | 76 | 1022.5 |
| 20260906171606 | 25 | 79 | 24.1 | 43.5 | 0.00 | 0.00 | 0.00 | 74 | 1022.7 |
| 20260906170114 | 26 | 107 | 14.5 | 32.2 | 0.00 | 0.00 | 0.00 | 69 | 1022.5 |
| 20260906164604 | 26 | 88 | 11.3 | 24.1 | 0.00 | 0.00 | 0.00 | 69 | 1022.4 |
| 20260906163105 | 25 | 84 | 11.3 | 19.3 | 0.00 | 0.00 | 0.00 | 73 | 1022.1 |
| 20260906161604 | 25 | 91 | 4.8 | 12.9 | 0.00 | 0.00 | 0.00 | 76 | 1022.1 |
| 20260906160059 | 23 | 39 | 6.4 | 20.9 | 0.00 | 0.00 | 0.00 | 79 | 1022.0 |
| 20260906154614 | 23 | 39 | 12.9 | 20.9 | 0.00 | 0.00 | 0.00 | 79 | 1021.9 |
| 20260906153121 | 23 | 34 | 11.3 | 20.9 | 0.00 | 0.00 | 0.00 | 80 | 1021.8 |
| 20260906151600 | 22 | 28 | 1.6 | 8.0 | 0.00 | 0.00 | 0.00 | 82 | 1021.7 |
| 20260906150106 | 22 | 9 | 3.2 | 8.0 | 0.00 | 0.00 | 0.00 | 84 | 1021.4 |
| 20260906144617 | 21 | 53 | 3.2 | 8.0 | 0.00 | 0.00 | 0.00 | 87 | 1021.2 |
| 20260906143108 | 21 | 326 | 3.2 | 6.4 | 0.00 | 0.00 | 0.00 | 89 | 1021.1 |
| 20260906141618 | 21 | 122 | 1.6 | 3.2 | 0.00 | 0.00 | 0.00 | 89 | 1021.4 |
| 20260906140110 | 21 | 0 | 0.0 | 4.8 | 0.00 | 0.00 | 0.00 | 88 | 1021.6 |
| 20260906134631 | 21 | 0 | 1.6 | 8.0 | 0.00 | 0.00 | 0.00 | 86 | 1021.3 |
| 20260906133104 | 21 | 0 | 1.6 | 4.8 | 0.00 | 0.00 | 0.00 | 84 | 1021.3 |
| 20260906131606 | 22 | 127 | 1.6 | 4.8 | 0.00 | 0.00 | 0.00 | 81 | 1020.2 |
| 20260906130108 | 22 | 0 | 0.0 | 8.0 | 0.00 | 0.00 | 0.00 | 79 | 1020.2 |
| 20260906124608 | 22 | 0 | 0.0 | 19.3 | 0.00 | 0.00 | 0.00 | 79 | 1020.2 |
| 20260906123101 | 22 | 26 | 9.7 | 16.1 | 0.00 | 0.00 | 0.00 | 80 | 1020.5 |
| 20260906121603 | 22 | 4 | 3.2 | 12.9 | 0.00 | 0.00 | 0.00 | 79 | 1020.6 |
| 20260906120109 | 22 | 84 | 24.1 | 35.4 | 0.00 | 0.00 | 0.00 | 79 | 1019.9 |
| 20260906114629 | 23 | 131 | 1.6 | 19.3 | 0.00 | 0.00 | 0.00 | 72 | 1018.9 |
| 20260906113101 | 23 | 221 | 12.9 | 35.4 | 0.00 | 0.00 | 0.00 | 74 | 1018.6 |
| 20260906111621 | 22 | 227 | 25.7 | 53.1 | 0.00 | 0.00 | 0.00 | 74 | 1018.6 |
| 20260906104607 | 23 | 232 | 16.1 | 29.0 | 0.00 | 0.00 | 0.00 | 73 | 1020.0 |
| 20260906103100 | 23 | 237 | 19.3 | 29.0 | 0.00 | 0.00 | 0.00 | 72 | 1020.0 |
| 20260906101604 | 24 | 263 | 12.9 | 27.4 | 0.00 | 0.00 | 0.00 | 77 | 1019.4 |
| 20260906094604 | 23 | 216 | 3.2 | 6.4 | 0.00 | 0.00 | 0.00 | 93 | 1019.7 |
| 20260906093106 | 23 | 137 | 1.6 | 4.8 | 0.00 | 0.00 | 0.00 | 93 | 1019.2 |
| 20260906091607 | 23 | 226 | 0.0 | 3.2 | 0.00 | 0.00 | 0.00 | 93 | 1019.2 |
| 20260906090130 | 23 | 0 | 0.0 | 0.0 | 0.00 | 0.00 | 0.00 | 93 | 1019.4 |
| 20260906084611 | 23 | 0 | 0.0 | 0.0 | 0.00 | 0.00 | 0.00 | 92 | 1019.3 |
| 20260906083059 | 23 | 0 | 0.0 | 0.0 | 0.00 | 0.00 | 0.00 | 91 | 1019.5 |
| 20260906081604 | 24 | 0 | 0.0 | 8.0 | 0.00 | 0.00 | 0.00 | 90 | 1019.5 |
| 20260906074611 | 24 | 219 | 4.8 | 14.5 | 0.00 | 0.00 | 0.00 | 90 | 1020.1 |
| 20260906073110 | 23 | 294 | 11.3 | 16.1 | 0.00 | 0.00 | 0.00 | 91 | 1020.5 |
| 20260906071558 | 23 | 271 | 0.0 | 9.7 | 0.00 | 0.00 | 0.00 | 91 | 1020.0 |
| 20260906070135 | 23 | 226 | 0.0 | 6.4 | 0.00 | 0.00 | 0.00 | 91 | 1019.5 |
| 20260906064602 | 24 | 122 | 6.4 | 9.7 | 0.00 | 0.00 | 0.00 | 90 | 1019.0 |
| 20260906063108 | 24 | 93 | 3.2 | 9.7 | 0.00 | 0.00 | 0.00 | 90 | 1019.0 |
| 20260906061635 | 23 | 97 | 4.8 | 11.3 | 0.00 | 0.00 | 0.00 | 91 | 1019.3 |
| 20260906060109 | 24 | 86 | 6.4 | 11.3 | 0.00 | 0.00 | 0.00 | 91 | 1019.1 |
| 20260906054606 | 24 | 92 | 1.6 | 4.8 | 0.00 | 0.00 | 0.00 | 89 | 1019.3 |
| 20260906053101 | 24 | 92 | 3.2 | 9.7 | 0.00 | 0.00 | 0.00 | 88 | 1019.4 |
| 20260906051606 | 24 | 84 | 3.2 | 8.0 | 0.00 | 0.00 | 0.00 | 89 | 1019.4 |
| 20260906050116 | 24 | 117 | 3.2 | 8.0 | 0.00 | 0.00 | 0.00 | 90 | 1019.2 |
| 20260906044603 | 24 | 105 | 3.2 | 8.0 | 0.00 | 0.00 | 0.00 | 89 | 1019.0 |
| 20260906043112 | 24 | 98 | 3.2 | 8.0 | 0.00 | 0.00 | 0.00 | 88 | 1019.2 |
| 20260906041558 | 25 | 130 | 3.2 | 8.0 | 0.00 | 0.00 | 0.00 | 88 | 1019.2 |
| 20260906040119 | 25 | 107 | 3.2 | 9.7 | 0.00 | 0.00 | 0.00 | 87 | 1019.3 |
| 20260906034602 | 25 | 86 | 4.8 | 9.7 | 0.00 | 0.00 | 0.00 | 86 | 1019.4 |
| 20260906033101 | 25 | 104 | 4.8 | 6.4 | 0.00 | 0.00 | 0.00 | 86 | 1019.7 |
| 20260906031612 | 25 | 0 | 0.0 | 1.6 | 0.00 | 0.00 | 0.00 | 88 | 1019.5 |
| 20260906030109 | 25 | 58 | 3.2 | 6.4 | 0.00 | 0.00 | 0.00 | 86 | 1019.2 |
| 20260906024603 | 26 | 95 | 0.0 | 6.4 | 0.00 | 0.00 | 0.00 | 85 | 1019.2 |
| 20260906023132 | 26 | 139 | 3.2 | 6.4 | 0.00 | 0.00 | 0.00 | 82 | 1019.2 |
| 20260906021608 | 25 | 0 | 0.0 | 3.2 | 0.00 | 0.00 | 0.00 | 85 | 1018.8 |
| 20260906020107 | 26 | 0 | 0.0 | 0.0 | 0.00 | 0.00 | 0.00 | 83 | 1018.6 |
| 20260906014629 | 26 | 143 | 0.0 | 1.6 | 0.00 | 0.00 | 0.00 | 84 | 1018.3 |
| 20260906013103 | 27 | 0 | 0.0 | 3.2 | 0.00 | 0.00 | 0.00 | 82 | 1017.7 |
| 20260906011602 | 27 | 84 | 3.2 | 8.0 | 0.00 | 0.00 | 0.00 | 77 | 1017.6 |
| 20260906004614 | 28 | 66 | 3.2 | 9.7 | 0.00 | 0.00 | 0.00 | 76 | 1017.3 |
| 20260906003109 | 28 | 60 | 4.8 | 8.0 | 0.00 | 0.00 | 0.00 | 75 | 1017.2 |
| 20260906001602 | 29 | 190 | 4.8 | 11.3 | 0.00 | 0.00 | 0.00 | 71 | 1017.1 |
| 20260906000111 | 30 | 226 | 6.4 | 11.3 | 0.00 | 0.00 | 0.00 | 72 | 1017.1 |
| 20260905234604 | 30 | 215 | 4.8 | 8.0 | 0.00 | 0.00 | 0.00 | 69 | 1017.1 |
| 20260905233106 | 30 | 162 | 3.2 | 8.0 | 0.00 | 0.00 | 0.00 | 67 | 1017.1 |
| 20260905231601 | 31 | 190 | 6.4 | 12.9 | 0.00 | 0.00 | 0.00 | 64 | 1017.0 |
| 20260905230109 | 32 | 174 | 8.0 | 17.7 | 0.00 | 0.00 | 0.00 | 61 | 1017.0 |
| 20260905224610 | 32 | 217 | 9.7 | 19.3 | 0.00 | 0.00 | 0.00 | 62 | 1017.1 |
| 20260905223107 | 32 | 217 | 14.5 | 25.7 | 0.00 | 0.00 | 0.00 | 60 | 1017.0 |
| 20260905221606 | 31 | 173 | 14.5 | 27.4 | 0.00 | 0.00 | 0.00 | 65 | 1016.7 |
| 20260905220123 | 29 | 198 | 16.1 | 27.4 | 0.00 | 0.00 | 0.00 | 69 | 1017.2 |
| 20260905214606 | 28 | 212 | 11.3 | 22.5 | 0.00 | 0.00 | 0.00 | 70 | 1018.2 |
| 20260905213108 | 27 | 220 | 11.3 | 16.1 | 0.00 | 0.00 | 0.00 | 77 | 1018.8 |
| 20260905211609 | 28 | 266 | 9.7 | 16.1 | 0.00 | 0.00 | 0.00 | 73 | 1019.2 |
| 20260905210107 | 28 | 293 | 8.0 | 17.7 | 0.00 | 0.00 | 0.00 | 72 | 1019.5 |
| 20260905204600 | 28 | 267 | 9.7 | 17.7 | 0.00 | 0.00 | 0.00 | 69 | 1019.5 |
| 20260905203105 | 29 | 293 | 12.9 | 27.4 | 0.00 | 0.00 | 0.00 | 69 | 1019.6 |
| 20260905201607 | 30 | 247 | 11.3 | 35.4 | 0.00 | 0.00 | 0.00 | 67 | 1018.8 |